sensor_id;sensor_type;location;lat;lon;timestamp;temperature;humidity
39677;DHT22;27789;50.840;4.386;2022-07-01T00:01:30;15.30;99.90
39677;DHT22;27789;50.840;4.386;2022-07-01T00:03:55;15.40;99.90
39677;DHT22;27789;50.840;4.386;2022-07-01T00:06:22;15.30;99.90
39677;DHT22;27789;50.840;4.386;2022-07-01T00:08:47;15.30;99.90
39677;DHT22;27789;50.840;4.386;2022-07-01T00:11:14;15.40;99.90
39677;DHT22;27789;50.840;4.386;2022-07-01T00:13:40;15.20;99.90
39677;DHT22;27789;50.840;4.386;2022-07-01T00:16:05;15.30;99.90
39677;DHT22;27789;50.840;4.386;2022-07-01T00:18:31;15.30;99.90
39677;DHT22;27789;50.840;4.386;2022-07-01T00:20:56;15.30;99.90
39677;DHT22;27789;50.840;4.386;2022-07-01T00:23:22;15.30;99.90
39677;DHT22;27789;50.840;4.386;2022-07-01T00:25:48;15.30;99.90
39677;DHT22;27789;50.840;4.386;2022-07-01T00:28:14;15.30;99.90
39677;DHT22;27789;50.840;4.386;2022-07-01T00:30:39;15.20;99.90
39677;DHT22;27789;50.840;4.386;2022-07-01T00:33:05;15.20;99.90
39677;DHT22;27789;50.840;4.386;2022-07-01T00:35:31;15.20;99.90
39677;DHT22;27789;50.840;4.386;2022-07-01T00:37:57;15.20;99.90
39677;DHT22;27789;50.840;4.386;2022-07-01T00:40:23;15.10;99.90
39677;DHT22;27789;50.840;4.386;2022-07-01T00:42:49;15.20;99.90
39677;DHT22;27789;50.840;4.386;2022-07-01T00:45:15;15.20;99.90
39677;DHT22;27789;50.840;4.386;2022-07-01T00:47:42;15.20;99.90
39677;DHT22;27789;50.840;4.386;2022-07-01T00:50:11;15.10;99.90
39677;DHT22;27789;50.840;4.386;2022-07-01T00:52:38;15.10;99.90
39677;DHT22;27789;50.840;4.386;2022-07-01T00:55:06;15.00;99.90
39677;DHT22;27789;50.840;4.386;2022-07-01T00:57:35;15.00;99.90
39677;DHT22;27789;50.840;4.386;2022-07-01T01:00:09;15.10;99.90
39677;DHT22;27789;50.840;4.386;2022-07-01T01:02:35;15.10;99.90
39677;DHT22;27789;50.840;4.386;2022-07-01T01:05:03;15.10;99.90
39677;DHT22;27789;50.840;4.386;2022-07-01T01:07:29;15.10;99.90
39677;DHT22;27789;50.840;4.386;2022-07-01T01:09:55;15.10;99.90
39677;DHT22;27789;50.840;4.386;2022-07-01T01:12:21;15.10;99.90
39677;DHT22;27789;50.840;4.386;2022-07-01T01:14:48;15.10;99.90
39677;DHT22;27789;50.840;4.386;2022-07-01T01:17:15;15.10;99.90
39677;DHT22;27789;50.840;4.386;2022-07-01T01:19:42;15.10;99.90
39677;DHT22;27789;50.840;4.386;2022-07-01T01:22:08;15.10;99.90
39677;DHT22;27789;50.840;4.386;2022-07-01T01:24:37;15.20;99.90
39677;DHT22;27789;50.840;4.386;2022-07-01T01:27:04;15.10;99.90
39677;DHT22;27789;50.840;4.386;2022-07-01T01:29:30;15.10;99.90
39677;DHT22;27789;50.840;4.386;2022-07-01T01:31:56;15.10;99.90
39677;DHT22;27789;50.840;4.386;2022-07-01T01:34:21;15.10;99.90
39677;DHT22;27789;50.840;4.386;2022-07-01T01:36:47;15.20;99.90
39677;DHT22;27789;50.840;4.386;2022-07-01T01:39:12;15.20;99.90
39677;DHT22;27789;50.840;4.386;2022-07-01T01:41:42;15.10;99.90
39677;DHT22;27789;50.840;4.386;2022-07-01T01:44:08;15.00;99.90
39677;DHT22;27789;50.840;4.386;2022-07-01T01:46:34;15.00;99.90
39677;DHT22;27789;50.840;4.386;2022-07-01T01:49:00;15.10;99.90
39677;DHT22;27789;50.840;4.386;2022-07-01T01:51:27;15.10;99.90
39677;DHT22;27789;50.840;4.386;2022-07-01T01:53:52;15.10;99.90
39677;DHT22;27789;50.840;4.386;2022-07-01T01:56:18;15.10;99.90
39677;DHT22;27789;50.840;4.386;2022-07-01T01:58:44;15.10;99.90
39677;DHT22;27789;50.840;4.386;2022-07-01T02:01:13;15.10;99.90
39677;DHT22;27789;50.840;4.386;2022-07-01T02:03:40;15.10;99.90
39677;DHT22;27789;50.840;4.386;2022-07-01T02:06:10;15.10;99.90
39677;DHT22;27789;50.840;4.386;2022-07-01T02:08:40;15.10;99.90
39677;DHT22;27789;50.840;4.386;2022-07-01T02:11:06;15.20;99.90
39677;DHT22;27789;50.840;4.386;2022-07-01T02:13:32;15.20;99.90
39677;DHT22;27789;50.840;4.386;2022-07-01T02:15:58;15.20;99.90
39677;DHT22;27789;50.840;4.386;2022-07-01T02:18:24;15.30;99.90
39677;DHT22;27789;50.840;4.386;2022-07-01T02:20:50;15.30;99.90
39677;DHT22;27789;50.840;4.386;2022-07-01T02:23:16;15.20;99.90
39677;DHT22;27789;50.840;4.386;2022-07-01T02:25:42;15.30;99.90
39677;DHT22;27789;50.840;4.386;2022-07-01T02:28:08;15.30;99.90
39677;DHT22;27789;50.840;4.386;2022-07-01T02:30:34;15.30;99.90
39677;DHT22;27789;50.840;4.386;2022-07-01T02:33:02;15.30;99.90
39677;DHT22;27789;50.840;4.386;2022-07-01T02:35:28;15.30;99.90
39677;DHT22;27789;50.840;4.386;2022-07-01T02:37:54;15.30;99.90
39677;DHT22;27789;50.840;4.386;2022-07-01T02:40:20;15.30;99.90
39677;DHT22;27789;50.840;4.386;2022-07-01T02:42:45;15.30;99.90
39677;DHT22;27789;50.840;4.386;2022-07-01T02:45:12;15.20;99.90
39677;DHT22;27789;50.840;4.386;2022-07-01T02:47:39;15.30;99.90
39677;DHT22;27789;50.840;4.386;2022-07-01T02:50:07;15.30;99.90
39677;DHT22;27789;50.840;4.386;2022-07-01T02:52:34;15.20;99.90
39677;DHT22;27789;50.840;4.386;2022-07-01T02:55:00;15.20;99.90
39677;DHT22;27789;50.840;4.386;2022-07-01T02:57:26;15.30;99.90
39677;DHT22;27789;50.840;4.386;2022-07-01T02:59:52;15.20;99.90
39677;DHT22;27789;50.840;4.386;2022-07-01T03:02:19;15.20;99.90
39677;DHT22;27789;50.840;4.386;2022-07-01T03:04:46;15.20;99.90
39677;DHT22;27789;50.840;4.386;2022-07-01T03:07:11;15.20;99.90
39677;DHT22;27789;50.840;4.386;2022-07-01T03:09:37;15.20;99.90
39677;DHT22;27789;50.840;4.386;2022-07-01T03:12:06;15.20;99.90
39677;DHT22;27789;50.840;4.386;2022-07-01T03:15:00;15.10;99.90
39677;DHT22;27789;50.840;4.386;2022-07-01T03:17:28;15.10;99.90
39677;DHT22;27789;50.840;4.386;2022-07-01T03:19:54;15.10;99.90
39677;DHT22;27789;50.840;4.386;2022-07-01T03:22:22;15.10;99.90
39677;DHT22;27789;50.840;4.386;2022-07-01T03:24:49;15.20;99.90
39677;DHT22;27789;50.840;4.386;2022-07-01T03:27:16;15.20;99.90
39677;DHT22;27789;50.840;4.386;2022-07-01T03:29:42;15.10;99.90
39677;DHT22;27789;50.840;4.386;2022-07-01T03:32:08;15.10;99.90
39677;DHT22;27789;50.840;4.386;2022-07-01T03:34:44;15.10;99.90
39677;DHT22;27789;50.840;4.386;2022-07-01T03:37:11;15.10;99.90
39677;DHT22;27789;50.840;4.386;2022-07-01T03:39:41;15.10;99.90
39677;DHT22;27789;50.840;4.386;2022-07-01T03:42:08;15.10;99.90
39677;DHT22;27789;50.840;4.386;2022-07-01T03:44:34;15.10;99.90
39677;DHT22;27789;50.840;4.386;2022-07-01T03:47:02;15.00;99.90
39677;DHT22;27789;50.840;4.386;2022-07-01T03:49:28;15.10;99.90
39677;DHT22;27789;50.840;4.386;2022-07-01T03:51:54;15.10;99.90
39677;DHT22;27789;50.840;4.386;2022-07-01T03:54:20;15.10;99.90
39677;DHT22;27789;50.840;4.386;2022-07-01T03:57:01;15.00;99.90
39677;DHT22;27789;50.840;4.386;2022-07-01T03:59:27;15.00;99.90
39677;DHT22;27789;50.840;4.386;2022-07-01T04:01:54;15.00;99.90
39677;DHT22;27789;50.840;4.386;2022-07-01T04:04:20;15.00;99.90
39677;DHT22;27789;50.840;4.386;2022-07-01T04:06:46;15.00;99.90
39677;DHT22;27789;50.840;4.386;2022-07-01T04:09:15;15.00;99.90
39677;DHT22;27789;50.840;4.386;2022-07-01T04:11:41;15.00;99.90
39677;DHT22;27789;50.840;4.386;2022-07-01T04:14:09;14.90;99.90
39677;DHT22;27789;50.840;4.386;2022-07-01T04:16:35;14.90;99.90
39677;DHT22;27789;50.840;4.386;2022-07-01T04:19:00;14.90;99.90
39677;DHT22;27789;50.840;4.386;2022-07-01T04:21:26;14.80;99.90
39677;DHT22;27789;50.840;4.386;2022-07-01T04:24:03;14.70;99.90
39677;DHT22;27789;50.840;4.386;2022-07-01T04:26:29;14.70;99.90
39677;DHT22;27789;50.840;4.386;2022-07-01T04:28:55;14.70;99.90
39677;DHT22;27789;50.840;4.386;2022-07-01T04:31:21;14.70;99.90
39677;DHT22;27789;50.840;4.386;2022-07-01T04:33:48;14.60;99.90
39677;DHT22;27789;50.840;4.386;2022-07-01T04:36:14;14.60;99.90
39677;DHT22;27789;50.840;4.386;2022-07-01T04:38:40;14.60;99.90
39677;DHT22;27789;50.840;4.386;2022-07-01T04:41:05;14.70;99.90
39677;DHT22;27789;50.840;4.386;2022-07-01T04:43:42;14.70;99.90
39677;DHT22;27789;50.840;4.386;2022-07-01T04:46:08;14.60;99.90
39677;DHT22;27789;50.840;4.386;2022-07-01T04:48:33;14.60;99.90
39677;DHT22;27789;50.840;4.386;2022-07-01T04:50:59;14.70;99.90
39677;DHT22;27789;50.840;4.386;2022-07-01T04:53:25;14.60;99.90
39677;DHT22;27789;50.840;4.386;2022-07-01T04:55:50;14.60;99.90
39677;DHT22;27789;50.840;4.386;2022-07-01T04:58:16;14.60;99.90
39677;DHT22;27789;50.840;4.386;2022-07-01T05:00:41;14.60;99.90
39677;DHT22;27789;50.840;4.386;2022-07-01T05:03:08;14.60;99.90
39677;DHT22;27789;50.840;4.386;2022-07-01T05:05:33;14.60;99.90
39677;DHT22;27789;50.840;4.386;2022-07-01T05:07:59;14.60;99.90
39677;DHT22;27789;50.840;4.386;2022-07-01T05:10:25;14.70;99.90
39677;DHT22;27789;50.840;4.386;2022-07-01T05:12:50;14.70;99.90
39677;DHT22;27789;50.840;4.386;2022-07-01T05:15:16;14.80;99.90
39677;DHT22;27789;50.840;4.386;2022-07-01T05:17:42;14.80;99.90
39677;DHT22;27789;50.840;4.386;2022-07-01T05:20:17;14.80;99.90
39677;DHT22;27789;50.840;4.386;2022-07-01T05:22:53;14.80;99.90
39677;DHT22;27789;50.840;4.386;2022-07-01T05:25:20;14.90;99.90
39677;DHT22;27789;50.840;4.386;2022-07-01T05:27:45;14.80;99.90
39677;DHT22;27789;50.840;4.386;2022-07-01T05:30:11;14.80;99.90
39677;DHT22;27789;50.840;4.386;2022-07-01T05:32:37;14.80;99.90
39677;DHT22;27789;50.840;4.386;2022-07-01T05:35:03;14.90;99.90
39677;DHT22;27789;50.840;4.386;2022-07-01T05:37:28;14.90;99.90
39677;DHT22;27789;50.840;4.386;2022-07-01T05:39:54;15.00;99.90
39677;DHT22;27789;50.840;4.386;2022-07-01T05:42:19;15.10;99.90
39677;DHT22;27789;50.840;4.386;2022-07-01T05:44:45;15.20;99.90
39677;DHT22;27789;50.840;4.386;2022-07-01T05:47:10;15.20;99.90
39677;DHT22;27789;50.840;4.386;2022-07-01T05:49:36;15.20;99.90
39677;DHT22;27789;50.840;4.386;2022-07-01T05:52:02;15.20;99.90
39677;DHT22;27789;50.840;4.386;2022-07-01T05:54:27;15.30;99.90
39677;DHT22;27789;50.840;4.386;2022-07-01T05:56:53;15.30;99.90
39677;DHT22;27789;50.840;4.386;2022-07-01T05:59:19;15.40;99.90
39677;DHT22;27789;50.840;4.386;2022-07-01T06:01:44;15.40;99.90
39677;DHT22;27789;50.840;4.386;2022-07-01T06:04:11;15.50;99.90
39677;DHT22;27789;50.840;4.386;2022-07-01T06:06:37;15.60;99.90
39677;DHT22;27789;50.840;4.386;2022-07-01T06:09:03;15.60;99.90
39677;DHT22;27789;50.840;4.386;2022-07-01T06:11:28;15.60;99.90
39677;DHT22;27789;50.840;4.386;2022-07-01T06:13:54;15.60;99.90
39677;DHT22;27789;50.840;4.386;2022-07-01T06:16:20;15.60;99.90
39677;DHT22;27789;50.840;4.386;2022-07-01T06:18:45;15.60;99.90
39677;DHT22;27789;50.840;4.386;2022-07-01T06:21:11;15.60;99.90
39677;DHT22;27789;50.840;4.386;2022-07-01T06:23:36;15.70;99.90
39677;DHT22;27789;50.840;4.386;2022-07-01T06:26:03;15.80;99.90
39677;DHT22;27789;50.840;4.386;2022-07-01T06:28:28;15.80;99.90
39677;DHT22;27789;50.840;4.386;2022-07-01T06:30:56;15.80;99.90
39677;DHT22;27789;50.840;4.386;2022-07-01T06:33:21;15.80;99.90
39677;DHT22;27789;50.840;4.386;2022-07-01T06:35:47;15.80;99.90
39677;DHT22;27789;50.840;4.386;2022-07-01T06:38:12;15.80;99.90
39677;DHT22;27789;50.840;4.386;2022-07-01T06:40:38;15.90;99.90
39677;DHT22;27789;50.840;4.386;2022-07-01T06:43:03;15.90;99.90
39677;DHT22;27789;50.840;4.386;2022-07-01T06:45:29;16.00;99.90
39677;DHT22;27789;50.840;4.386;2022-07-01T06:47:58;16.00;99.90
39677;DHT22;27789;50.840;4.386;2022-07-01T06:50:24;16.00;99.90
39677;DHT22;27789;50.840;4.386;2022-07-01T06:52:49;16.00;99.90
39677;DHT22;27789;50.840;4.386;2022-07-01T06:55:15;16.00;99.90
39677;DHT22;27789;50.840;4.386;2022-07-01T06:57:41;16.10;99.90
39677;DHT22;27789;50.840;4.386;2022-07-01T07:00:07;16.10;99.90
39677;DHT22;27789;50.840;4.386;2022-07-01T07:02:32;16.20;99.90
39677;DHT22;27789;50.840;4.386;2022-07-01T07:04:58;16.40;99.90
39677;DHT22;27789;50.840;4.386;2022-07-01T07:07:24;16.30;99.90
39677;DHT22;27789;50.840;4.386;2022-07-01T07:09:52;16.40;99.90
39677;DHT22;27789;50.840;4.386;2022-07-01T07:12:18;16.40;99.90
39677;DHT22;27789;50.840;4.386;2022-07-01T07:14:43;16.50;99.90
39677;DHT22;27789;50.840;4.386;2022-07-01T07:17:09;16.50;99.90
39677;DHT22;27789;50.840;4.386;2022-07-01T07:19:34;16.60;99.90
39677;DHT22;27789;50.840;4.386;2022-07-01T07:22:00;16.60;99.90
39677;DHT22;27789;50.840;4.386;2022-07-01T07:24:25;16.70;99.90
39677;DHT22;27789;50.840;4.386;2022-07-01T07:26:51;16.70;99.90
39677;DHT22;27789;50.840;4.386;2022-07-01T07:29:17;16.80;99.90
39677;DHT22;27789;50.840;4.386;2022-07-01T07:31:42;16.80;99.90
39677;DHT22;27789;50.840;4.386;2022-07-01T07:34:08;16.90;99.90
39677;DHT22;27789;50.840;4.386;2022-07-01T07:36:33;17.00;99.90
39677;DHT22;27789;50.840;4.386;2022-07-01T07:38:59;17.00;99.90
39677;DHT22;27789;50.840;4.386;2022-07-01T07:41:25;17.10;99.90
39677;DHT22;27789;50.840;4.386;2022-07-01T07:43:50;17.10;99.90
39677;DHT22;27789;50.840;4.386;2022-07-01T07:46:16;17.00;99.90
39677;DHT22;27789;50.840;4.386;2022-07-01T07:48:41;17.10;99.90
39677;DHT22;27789;50.840;4.386;2022-07-01T07:51:09;17.30;99.90
39677;DHT22;27789;50.840;4.386;2022-07-01T07:53:35;17.50;99.90
39677;DHT22;27789;50.840;4.386;2022-07-01T07:56:00;17.60;99.90
39677;DHT22;27789;50.840;4.386;2022-07-01T07:58:26;17.60;99.90
39677;DHT22;27789;50.840;4.386;2022-07-01T08:00:52;17.60;99.90
39677;DHT22;27789;50.840;4.386;2022-07-01T08:03:17;17.50;99.90
39677;DHT22;27789;50.840;4.386;2022-07-01T08:05:43;17.50;99.90
39677;DHT22;27789;50.840;4.386;2022-07-01T08:08:09;17.70;99.90
39677;DHT22;27789;50.840;4.386;2022-07-01T08:10:34;17.90;99.90
39677;DHT22;27789;50.840;4.386;2022-07-01T08:13:00;17.90;99.90
39677;DHT22;27789;50.840;4.386;2022-07-01T08:15:30;17.90;99.90
39677;DHT22;27789;50.840;4.386;2022-07-01T08:17:56;18.10;99.90
39677;DHT22;27789;50.840;4.386;2022-07-01T08:20:22;18.00;99.90
39677;DHT22;27789;50.840;4.386;2022-07-01T08:22:47;18.00;99.90
39677;DHT22;27789;50.840;4.386;2022-07-01T08:25:13;18.10;99.90
39677;DHT22;27789;50.840;4.386;2022-07-01T08:27:39;18.10;99.90
39677;DHT22;27789;50.840;4.386;2022-07-01T08:30:06;18.10;99.90
39677;DHT22;27789;50.840;4.386;2022-07-01T08:32:32;18.20;99.90
39677;DHT22;27789;50.840;4.386;2022-07-01T08:34:57;18.10;99.90
39677;DHT22;27789;50.840;4.386;2022-07-01T08:37:23;18.00;99.90
39677;DHT22;27789;50.840;4.386;2022-07-01T08:39:48;18.00;99.90
39677;DHT22;27789;50.840;4.386;2022-07-01T08:42:14;18.00;99.90
39677;DHT22;27789;50.840;4.386;2022-07-01T08:44:40;18.00;99.90
39677;DHT22;27789;50.840;4.386;2022-07-01T08:47:11;18.00;99.90
39677;DHT22;27789;50.840;4.386;2022-07-01T08:49:37;18.10;99.90
39677;DHT22;27789;50.840;4.386;2022-07-01T08:52:03;18.20;99.90
39677;DHT22;27789;50.840;4.386;2022-07-01T08:54:29;18.20;99.90
39677;DHT22;27789;50.840;4.386;2022-07-01T08:56:54;18.20;99.90
39677;DHT22;27789;50.840;4.386;2022-07-01T08:59:25;18.20;99.90
39677;DHT22;27789;50.840;4.386;2022-07-01T09:02:02;18.30;99.90
39677;DHT22;27789;50.840;4.386;2022-07-01T09:04:29;18.50;99.90
39677;DHT22;27789;50.840;4.386;2022-07-01T09:07:06;18.60;99.90
39677;DHT22;27789;50.840;4.386;2022-07-01T09:09:38;18.70;99.90
39677;DHT22;27789;50.840;4.386;2022-07-01T09:12:04;18.80;99.90
39677;DHT22;27789;50.840;4.386;2022-07-01T09:14:42;19.00;99.90
39677;DHT22;27789;50.840;4.386;2022-07-01T09:20:40;19.20;99.20
39677;DHT22;27789;50.840;4.386;2022-07-01T09:23:07;19.00;99.70
39677;DHT22;27789;50.840;4.386;2022-07-01T09:25:39;18.90;99.90
39677;DHT22;27789;50.840;4.386;2022-07-01T09:31:09;19.00;99.90
39677;DHT22;27789;50.840;4.386;2022-07-01T09:33:35;19.20;99.30
39677;DHT22;27789;50.840;4.386;2022-07-01T09:36:00;19.30;99.20
39677;DHT22;27789;50.840;4.386;2022-07-01T09:38:26;19.30;99.00
39677;DHT22;27789;50.840;4.386;2022-07-01T09:41:00;19.40;99.40
39677;DHT22;27789;50.840;4.386;2022-07-01T09:43:28;19.50;99.70
39677;DHT22;27789;50.840;4.386;2022-07-01T09:46:08;19.70;98.20
39677;DHT22;27789;50.840;4.386;2022-07-01T09:51:00;19.50;97.50
39677;DHT22;27789;50.840;4.386;2022-07-01T09:53:29;19.40;97.60
39677;DHT22;27789;50.840;4.386;2022-07-01T09:55:55;19.30;96.40
39677;DHT22;27789;50.840;4.386;2022-07-01T09:58:21;19.10;97.20
39677;DHT22;27789;50.840;4.386;2022-07-01T10:00:47;19.10;97.40
39677;DHT22;27789;50.840;4.386;2022-07-01T10:03:13;19.10;97.80
39677;DHT22;27789;50.840;4.386;2022-07-01T10:05:44;19.20;97.90
39677;DHT22;27789;50.840;4.386;2022-07-01T10:08:24;19.30;97.80
39677;DHT22;27789;50.840;4.386;2022-07-01T10:13:39;19.50;97.50
39677;DHT22;27789;50.840;4.386;2022-07-01T10:16:07;19.60;97.70
39677;DHT22;27789;50.840;4.386;2022-07-01T10:18:33;19.70;97.00
39677;DHT22;27789;50.840;4.386;2022-07-01T10:20:59;19.90;96.10
39677;DHT22;27789;50.840;4.386;2022-07-01T10:23:41;20.00;96.40
39677;DHT22;27789;50.840;4.386;2022-07-01T10:26:08;20.10;95.30
39677;DHT22;27789;50.840;4.386;2022-07-01T10:31:13;19.80;94.00
39677;DHT22;27789;50.840;4.386;2022-07-01T10:33:50;19.90;94.30
39677;DHT22;27789;50.840;4.386;2022-07-01T10:41:42;20.80;93.90
39677;DHT22;27789;50.840;4.386;2022-07-01T10:44:20;21.00;93.90
39677;DHT22;27789;50.840;4.386;2022-07-01T10:46:50;20.90;93.60
39677;DHT22;27789;50.840;4.386;2022-07-01T10:52:07;21.10;93.90
39677;DHT22;27789;50.840;4.386;2022-07-01T10:59:41;21.00;92.90
39677;DHT22;27789;50.840;4.386;2022-07-01T11:02:11;20.90;93.10
39677;DHT22;27789;50.840;4.386;2022-07-01T11:04:37;20.80;93.30
39677;DHT22;27789;50.840;4.386;2022-07-01T11:07:03;20.60;93.00
39677;DHT22;27789;50.840;4.386;2022-07-01T11:09:29;20.60;93.20
39677;DHT22;27789;50.840;4.386;2022-07-01T11:11:55;20.50;93.40
39677;DHT22;27789;50.840;4.386;2022-07-01T11:14:20;20.70;93.70
39677;DHT22;27789;50.840;4.386;2022-07-01T11:16:46;20.90;92.80
39677;DHT22;27789;50.840;4.386;2022-07-01T11:19:12;21.00;92.10
39677;DHT22;27789;50.840;4.386;2022-07-01T11:21:37;21.20;92.20
39677;DHT22;27789;50.840;4.386;2022-07-01T11:24:08;21.30;91.50
39677;DHT22;27789;50.840;4.386;2022-07-01T11:26:34;21.30;92.00
39677;DHT22;27789;50.840;4.386;2022-07-01T11:28:59;21.50;90.80
39677;DHT22;27789;50.840;4.386;2022-07-01T11:31:32;21.60;90.70
39677;DHT22;27789;50.840;4.386;2022-07-01T11:33:58;21.60;90.30
39677;DHT22;27789;50.840;4.386;2022-07-01T11:36:24;21.70;90.50
39677;DHT22;27789;50.840;4.386;2022-07-01T11:39:00;21.90;90.80
39677;DHT22;27789;50.840;4.386;2022-07-01T11:41:37;22.80;88.80
39677;DHT22;27789;50.840;4.386;2022-07-01T11:44:02;24.00;85.80
39677;DHT22;27789;50.840;4.386;2022-07-01T11:46:31;23.70;81.80
39677;DHT22;27789;50.840;4.386;2022-07-01T11:48:56;23.30;82.80
39677;DHT22;27789;50.840;4.386;2022-07-01T11:51:23;22.90;84.10
39677;DHT22;27789;50.840;4.386;2022-07-01T11:53:51;23.60;84.70
39677;DHT22;27789;50.840;4.386;2022-07-01T11:56:27;24.40;81.50
39677;DHT22;27789;50.840;4.386;2022-07-01T11:58:53;24.40;84.00
39677;DHT22;27789;50.840;4.386;2022-07-01T12:01:32;24.20;81.40
39677;DHT22;27789;50.840;4.386;2022-07-01T12:04:09;23.70;81.10
39677;DHT22;27789;50.840;4.386;2022-07-01T12:06:36;23.30;82.50
39677;DHT22;27789;50.840;4.386;2022-07-01T12:09:15;25.00;79.10
39677;DHT22;27789;50.840;4.386;2022-07-01T12:11:45;27.10;76.80
39677;DHT22;27789;50.840;4.386;2022-07-01T12:14:11;28.40;72.50
39677;DHT22;27789;50.840;4.386;2022-07-01T12:16:40;29.50;67.60
39677;DHT22;27789;50.840;4.386;2022-07-01T12:19:06;30.40;64.90
39677;DHT22;27789;50.840;4.386;2022-07-01T12:21:53;31.70;64.90
39677;DHT22;27789;50.840;4.386;2022-07-01T12:24:20;30.40;61.10
39677;DHT22;27789;50.840;4.386;2022-07-01T12:29:28;30.00;62.30
39677;DHT22;27789;50.840;4.386;2022-07-01T12:31:56;30.30;60.60
39677;DHT22;27789;50.840;4.386;2022-07-01T12:34:22;31.40;59.60
39677;DHT22;27789;50.840;4.386;2022-07-01T12:36:49;32.20;57.90
39677;DHT22;27789;50.840;4.386;2022-07-01T12:39:15;32.90;58.10
39677;DHT22;27789;50.840;4.386;2022-07-01T12:41:49;31.60;59.40
39677;DHT22;27789;50.840;4.386;2022-07-01T12:44:23;32.60;57.50
39677;DHT22;27789;50.840;4.386;2022-07-01T12:46:49;33.40;56.70
39677;DHT22;27789;50.840;4.386;2022-07-01T12:49:22;32.60;55.30
39677;DHT22;27789;50.840;4.386;2022-07-01T12:51:48;31.60;55.90
39677;DHT22;27789;50.840;4.386;2022-07-01T12:54:31;32.10;55.20
39677;DHT22;27789;50.840;4.386;2022-07-01T12:56:57;32.70;55.10
39677;DHT22;27789;50.840;4.386;2022-07-01T12:59:23;32.30;53.50
39677;DHT22;27789;50.840;4.386;2022-07-01T13:01:48;31.70;54.30
39677;DHT22;27789;50.840;4.386;2022-07-01T13:04:14;30.30;56.90
39677;DHT22;27789;50.840;4.386;2022-07-01T13:06:48;30.10;56.70
39677;DHT22;27789;50.840;4.386;2022-07-01T13:09:16;29.90;56.40
39677;DHT22;27789;50.840;4.386;2022-07-01T13:11:41;29.40;57.90
39677;DHT22;27789;50.840;4.386;2022-07-01T13:14:07;31.00;58.30
39677;DHT22;27789;50.840;4.386;2022-07-01T13:16:32;32.20;55.70
39677;DHT22;27789;50.840;4.386;2022-07-01T13:18:58;30.60;56.10
39677;DHT22;27789;50.840;4.386;2022-07-01T13:21:24;30.10;57.20
39677;DHT22;27789;50.840;4.386;2022-07-01T13:23:51;29.80;57.50
39677;DHT22;27789;50.840;4.386;2022-07-01T13:26:17;30.20;57.50
39677;DHT22;27789;50.840;4.386;2022-07-01T13:28:46;29.80;57.10
39677;DHT22;27789;50.840;4.386;2022-07-01T13:31:11;30.30;56.90
39677;DHT22;27789;50.840;4.386;2022-07-01T13:33:38;29.60;57.20
39677;DHT22;27789;50.840;4.386;2022-07-01T13:36:06;29.00;57.90
39677;DHT22;27789;50.840;4.386;2022-07-01T13:38:32;28.70;59.70
39677;DHT22;27789;50.840;4.386;2022-07-01T13:40:58;28.20;58.30
39677;DHT22;27789;50.840;4.386;2022-07-01T13:43:23;27.60;60.40
39677;DHT22;27789;50.840;4.386;2022-07-01T13:45:49;27.20;60.60
39677;DHT22;27789;50.840;4.386;2022-07-01T13:48:15;26.70;61.10
39677;DHT22;27789;50.840;4.386;2022-07-01T13:50:40;26.60;61.20
39677;DHT22;27789;50.840;4.386;2022-07-01T13:53:08;26.20;62.10
39677;DHT22;27789;50.840;4.386;2022-07-01T13:55:34;25.90;63.40
39677;DHT22;27789;50.840;4.386;2022-07-01T13:57:59;25.60;63.00
39677;DHT22;27789;50.840;4.386;2022-07-01T14:00:25;25.10;64.40
39677;DHT22;27789;50.840;4.386;2022-07-01T14:02:51;24.90;64.80
39677;DHT22;27789;50.840;4.386;2022-07-01T14:05:16;24.70;65.60
39677;DHT22;27789;50.840;4.386;2022-07-01T14:07:42;24.40;65.80
39677;DHT22;27789;50.840;4.386;2022-07-01T14:10:09;24.00;66.40
39677;DHT22;27789;50.840;4.386;2022-07-01T14:12:34;23.80;68.60
39677;DHT22;27789;50.840;4.386;2022-07-01T14:15:00;23.80;67.30
39677;DHT22;27789;50.840;4.386;2022-07-01T14:17:26;23.60;68.10
39677;DHT22;27789;50.840;4.386;2022-07-01T14:19:53;23.40;68.00
39677;DHT22;27789;50.840;4.386;2022-07-01T14:22:19;23.30;68.10
39677;DHT22;27789;50.840;4.386;2022-07-01T14:24:44;23.20;68.50
39677;DHT22;27789;50.840;4.386;2022-07-01T14:27:10;23.10;68.20
39677;DHT22;27789;50.840;4.386;2022-07-01T14:29:35;23.00;69.00
39677;DHT22;27789;50.840;4.386;2022-07-01T14:32:01;23.00;70.70
39677;DHT22;27789;50.840;4.386;2022-07-01T14:34:27;22.90;68.60
39677;DHT22;27789;50.840;4.386;2022-07-01T14:36:52;23.00;69.50
39677;DHT22;27789;50.840;4.386;2022-07-01T14:39:18;23.10;70.40
39677;DHT22;27789;50.840;4.386;2022-07-01T14:41:44;23.30;69.00
39677;DHT22;27789;50.840;4.386;2022-07-01T14:44:15;23.50;68.70
39677;DHT22;27789;50.840;4.386;2022-07-01T14:46:41;23.60;68.80
39677;DHT22;27789;50.840;4.386;2022-07-01T14:49:07;23.80;68.70
39677;DHT22;27789;50.840;4.386;2022-07-01T14:51:33;24.00;69.60
39677;DHT22;27789;50.840;4.386;2022-07-01T14:53:59;24.10;70.30
39677;DHT22;27789;50.840;4.386;2022-07-01T14:56:24;24.00;69.60
39677;DHT22;27789;50.840;4.386;2022-07-01T14:58:53;24.10;70.10
39677;DHT22;27789;50.840;4.386;2022-07-01T15:01:18;24.20;71.90
39677;DHT22;27789;50.840;4.386;2022-07-01T15:03:44;24.50;69.50
39677;DHT22;27789;50.840;4.386;2022-07-01T15:06:10;24.70;67.60
39677;DHT22;27789;50.840;4.386;2022-07-01T15:08:35;24.90;68.00
39677;DHT22;27789;50.840;4.386;2022-07-01T15:11:02;24.80;67.60
39677;DHT22;27789;50.840;4.386;2022-07-01T15:13:29;24.90;68.90
39677;DHT22;27789;50.840;4.386;2022-07-01T15:15:56;25.00;71.40
39677;DHT22;27789;50.840;4.386;2022-07-01T15:18:22;25.10;70.90
39677;DHT22;27789;50.840;4.386;2022-07-01T15:20:48;25.00;69.70
39677;DHT22;27789;50.840;4.386;2022-07-01T15:23:13;24.70;70.20
39677;DHT22;27789;50.840;4.386;2022-07-01T15:25:39;24.60;70.60
39677;DHT22;27789;50.840;4.386;2022-07-01T15:28:05;24.40;70.90
39677;DHT22;27789;50.840;4.386;2022-07-01T15:30:30;24.20;70.50
39677;DHT22;27789;50.840;4.386;2022-07-01T15:32:56;24.10;70.50
39677;DHT22;27789;50.840;4.386;2022-07-01T15:35:22;23.80;71.30
39677;DHT22;27789;50.840;4.386;2022-07-01T15:37:48;23.80;71.50
39677;DHT22;27789;50.840;4.386;2022-07-01T15:40:14;23.60;72.70
39677;DHT22;27789;50.840;4.386;2022-07-01T15:42:39;23.60;72.70
39677;DHT22;27789;50.840;4.386;2022-07-01T15:45:06;23.60;74.00
39677;DHT22;27789;50.840;4.386;2022-07-01T15:47:32;23.40;72.60
39677;DHT22;27789;50.840;4.386;2022-07-01T15:50:09;23.30;73.90
39677;DHT22;27789;50.840;4.386;2022-07-01T15:52:34;23.10;75.10
39677;DHT22;27789;50.840;4.386;2022-07-01T15:55:00;23.10;74.80
39677;DHT22;27789;50.840;4.386;2022-07-01T15:57:26;23.00;74.40
39677;DHT22;27789;50.840;4.386;2022-07-01T15:59:51;23.00;73.80